Cornucopia Destiny — WDE6386 — position and weather

sailwx.info

Track history (hours):
 
Tides and Currents Weather Stations Pressure Air Temp Water Temp Dewpoint Dewpoint Depression Visibility Wind Speed Wind Dir Waves Ship Positions

Cornucopia Destiny

Owner: Sultan Wholesale LLC, Keyport, NJ. More information available from US FCC via Universal Licensing System and Coast Guard Vessel Documentation Center.

Last reported at 2014-Oct-25 04:06 UTC. Time now 2014-Oct-25 13:21 UTC.
Position N 40°45' W 074°01'.

Length 39 m.

Type: Passenger vessel. MMSI: 367379570.

Date/timePositionNaut miles runAvg speedWind from/ knotsBaromVisibWave heightAir tempDewpointWater temp
2014-Oct-25 04:06N 40°45' W 074°01'0 0.0
2014-Oct-25 03:33N 40°45' W 074°01'1 1.4
2014-Oct-25 02:33N 40°44' W 074°01'2 1.9
2014-Oct-25 01:33N 40°42' W 074°00'4 3.8
2014-Oct-25 00:33N 40°45' W 073°58'3 3.2
2014-Oct-24 23:33N 40°42' W 073°59'4 4.3
2014-Oct-24 22:33N 40°47' W 073°60'2 1.9
2014-Oct-24 21:33N 40°45' W 074°01'0 0.0
2014-Oct-24 20:33N 40°45' W 074°01'0 0.0
2014-Oct-24 19:33N 40°45' W 074°01'0 0.0
2014-Oct-24 18:33N 40°45' W 074°01'0 0.0
2014-Oct-24 17:33N 40°45' W 074°01'0 0.0
2014-Oct-24 16:33N 40°45' W 074°01'0 0.0
2014-Oct-24 15:33N 40°45' W 074°01'0 0.0
2014-Oct-24 03:15N 40°45' W 074°01'0 0.0
2014-Oct-24 02:33N 40°45' W 074°01'0 0.1
2014-Oct-24 01:34N 40°45' W 074°01'4 4.0
2014-Oct-24 00:34N 40°41' W 074°02'4 4.0
2014-Oct-23 23:34N 40°45' W 074°01'0 0.0
2014-Oct-23 22:34N 40°45' W 074°01'0 0.0
2014-Oct-23 21:33N 40°45' W 074°01'0 0.0
2014-Oct-23 20:33N 40°45' W 074°01'0 0.0
2014-Oct-23 19:33N 40°45' W 074°01'0 0.0
2014-Oct-23 18:33N 40°45' W 074°01'0 0.0
2014-Oct-23 17:33N 40°45' W 074°01'0 0.0
2014-Oct-23 16:33N 40°45' W 074°01'  
2014-Oct-19 16:33N 40°45' W 074°01'0 0.0
2014-Oct-19 15:33N 40°45' W 074°01'0 0.0
2014-Oct-18 20:33N 40°45' W 074°01'0 0.0
2014-Oct-18 19:33N 40°45' W 074°01'0 0.0
2014-Oct-18 18:33N 40°45' W 074°01'0 0.0
2014-Oct-18 17:33N 40°45' W 074°01'0 0.0
2014-Oct-18 16:33N 40°45' W 074°01'0 0.0
2014-Oct-18 15:33N 40°45' W 074°01'0 0.0
2014-Oct-18 04:14N 40°45' W 074°01'0 0.0
2014-Oct-18 03:33N 40°45' W 074°01'1 0.6
2014-Oct-18 02:33N 40°45' W 074°01'3 2.9
2014-Oct-18 01:33N 40°42' W 074°02'1 1.3
2014-Oct-18 00:33N 40°42' W 074°00'3 3.2
2014-Oct-17 23:33N 40°45' W 074°01'0 0.0
2014-Oct-17 22:33N 40°45' W 074°01'0 0.0
2014-Oct-17 21:33N 40°45' W 074°01'0 0.0
2014-Oct-17 20:34N 40°45' W 074°01'0 0.0
2014-Oct-17 19:34N 40°45' W 074°01'0 0.0
2014-Oct-17 18:34N 40°45' W 074°01'0 0.0
2014-Oct-17 15:24N 40°45' W 074°01'0 0.0
2014-Oct-15 21:34N 40°45' W 074°01'0 0.0
2014-Oct-15 20:33N 40°45' W 074°01'  
Track history (hours):
 
Tides and Currents Weather Stations Pressure Air Temp Water Temp Dewpoint Dewpoint Depression Visibility Wind Speed Wind Dir Waves Ship Positions

Cornucopia Destiny

Owner: Sultan Wholesale LLC, Keyport, NJ. More information available from US FCC via Universal Licensing System and Coast Guard Vessel Documentation Center.

Last reported at 2014-Oct-25 04:06 UTC. Time now 2014-Oct-25 13:21 UTC.
Position N 40°45' W 074°01'.

Length 39 m.

Type: Passenger vessel. MMSI: 367379570.

Date/timePositionNaut miles runAvg speedWind from/ knotsBaromVisibWave heightAir tempDewpointWater temp
2014-Oct-25 04:06N 40°45' W 074°01'0 0.0
2014-Oct-25 03:33N 40°45' W 074°01'1 1.4
2014-Oct-25 02:33N 40°44' W 074°01'2 1.9
2014-Oct-25 01:33N 40°42' W 074°00'4 3.8
2014-Oct-25 00:33N 40°45' W 073°58'3 3.2
2014-Oct-24 23:33N 40°42' W 073°59'4 4.3
2014-Oct-24 22:33N 40°47' W 073°60'2 1.9
2014-Oct-24 21:33N 40°45' W 074°01'0 0.0
2014-Oct-24 20:33N 40°45' W 074°01'0 0.0
2014-Oct-24 19:33N 40°45' W 074°01'0 0.0
2014-Oct-24 18:33N 40°45' W 074°01'0 0.0
2014-Oct-24 17:33N 40°45' W 074°01'0 0.0
2014-Oct-24 16:33N 40°45' W 074°01'0 0.0
2014-Oct-24 15:33N 40°45' W 074°01'0 0.0
2014-Oct-24 03:15N 40°45' W 074°01'0 0.0
2014-Oct-24 02:33N 40°45' W 074°01'0 0.1
2014-Oct-24 01:34N 40°45' W 074°01'4 4.0
2014-Oct-24 00:34N 40°41' W 074°02'4 4.0
2014-Oct-23 23:34N 40°45' W 074°01'0 0.0
2014-Oct-23 22:34N 40°45' W 074°01'0 0.0
2014-Oct-23 21:33N 40°45' W 074°01'0 0.0
2014-Oct-23 20:33N 40°45' W 074°01'0 0.0
2014-Oct-23 19:33N 40°45' W 074°01'0 0.0
2014-Oct-23 18:33N 40°45' W 074°01'0 0.0
2014-Oct-23 17:33N 40°45' W 074°01'0 0.0
2014-Oct-23 16:33N 40°45' W 074°01'  
2014-Oct-19 16:33N 40°45' W 074°01'0 0.0
2014-Oct-19 15:33N 40°45' W 074°01'0 0.0
2014-Oct-18 20:33N 40°45' W 074°01'0 0.0
2014-Oct-18 19:33N 40°45' W 074°01'0 0.0
2014-Oct-18 18:33N 40°45' W 074°01'0 0.0
2014-Oct-18 17:33N 40°45' W 074°01'0 0.0
2014-Oct-18 16:33N 40°45' W 074°01'0 0.0
2014-Oct-18 15:33N 40°45' W 074°01'0 0.0
2014-Oct-18 04:14N 40°45' W 074°01'0 0.0
2014-Oct-18 03:33N 40°45' W 074°01'1 0.6
2014-Oct-18 02:33N 40°45' W 074°01'3 2.9
2014-Oct-18 01:33N 40°42' W 074°02'1 1.3
2014-Oct-18 00:33N 40°42' W 074°00'3 3.2
2014-Oct-17 23:33N 40°45' W 074°01'0 0.0
2014-Oct-17 22:33N 40°45' W 074°01'0 0.0
2014-Oct-17 21:33N 40°45' W 074°01'0 0.0
2014-Oct-17 20:34N 40°45' W 074°01'0 0.0
2014-Oct-17 19:34N 40°45' W 074°01'0 0.0
2014-Oct-17 18:34N 40°45' W 074°01'0 0.0
2014-Oct-17 15:24N 40°45' W 074°01'0 0.0
2014-Oct-15 21:34N 40°45' W 074°01'0 0.0
2014-Oct-15 20:33N 40°45' W 074°01'  

Dump ship's entire track history